sensor_id;sensor_type;location;lat;lon;timestamp;pressure;altitude;pressure_sealevel;temperature
54746;BMP180;40640;48.130;11.356;2022-07-03T00:01:28;95980.00;;;16.20
54746;BMP180;40640;48.130;11.356;2022-07-03T00:05:31;95982.00;;;16.20
54746;BMP180;40640;48.130;11.356;2022-07-03T00:09:35;95979.00;;;16.20
54746;BMP180;40640;48.130;11.356;2022-07-03T00:13:38;95977.00;;;16.10
54746;BMP180;40640;48.130;11.356;2022-07-03T00:17:41;95975.00;;;16.10
54746;BMP180;40640;48.130;11.356;2022-07-03T00:21:46;95970.00;;;16.00
54746;BMP180;40640;48.130;11.356;2022-07-03T00:25:53;95982.00;;;15.80
54746;BMP180;40640;48.130;11.356;2022-07-03T00:29:58;95986.00;;;15.70
54746;BMP180;40640;48.130;11.356;2022-07-03T00:34:02;95980.00;;;15.80
54746;BMP180;40640;48.130;11.356;2022-07-03T00:38:05;95977.00;;;15.60
54746;BMP180;40640;48.130;11.356;2022-07-03T00:42:10;95965.00;;;15.60
54746;BMP180;40640;48.130;11.356;2022-07-03T00:46:14;95977.00;;;15.70
54746;BMP180;40640;48.130;11.356;2022-07-03T00:50:25;95972.00;;;15.80
54746;BMP180;40640;48.130;11.356;2022-07-03T00:54:32;95967.00;;;15.70
54746;BMP180;40640;48.130;11.356;2022-07-03T00:58:37;95961.00;;;15.60
54746;BMP180;40640;48.130;11.356;2022-07-03T01:02:46;95956.00;;;15.70
54746;BMP180;40640;48.130;11.356;2022-07-03T01:07:02;95962.00;;;15.70
54746;BMP180;40640;48.130;11.356;2022-07-03T01:11:20;95963.00;;;15.70
54746;BMP180;40640;48.130;11.356;2022-07-03T01:15:36;95959.00;;;15.60
54746;BMP180;40640;48.130;11.356;2022-07-03T01:19:46;95962.00;;;15.60
54746;BMP180;40640;48.130;11.356;2022-07-03T01:24:12;95956.00;;;15.30
54746;BMP180;40640;48.130;11.356;2022-07-03T01:28:20;95945.00;;;15.20
54746;BMP180;40640;48.130;11.356;2022-07-03T01:32:28;95957.00;;;15.30
54746;BMP180;40640;48.130;11.356;2022-07-03T01:36:35;95948.00;;;15.30
54746;BMP180;40640;48.130;11.356;2022-07-03T01:40:42;95947.00;;;15.10
54746;BMP180;40640;48.130;11.356;2022-07-03T01:44:47;95951.00;;;15.00
54746;BMP180;40640;48.130;11.356;2022-07-03T01:48:54;95950.00;;;15.20
54746;BMP180;40640;48.130;11.356;2022-07-03T01:53:00;95956.00;;;15.40
54746;BMP180;40640;48.130;11.356;2022-07-03T01:57:05;95950.00;;;15.40
54746;BMP180;40640;48.130;11.356;2022-07-03T02:01:15;95939.00;;;15.50
54746;BMP180;40640;48.130;11.356;2022-07-03T02:05:30;95945.00;;;15.50
54746;BMP180;40640;48.130;11.356;2022-07-03T02:09:40;95939.00;;;15.50
54746;BMP180;40640;48.130;11.356;2022-07-03T02:13:55;95949.00;;;15.50
54746;BMP180;40640;48.130;11.356;2022-07-03T02:18:06;95947.00;;;15.10
54746;BMP180;40640;48.130;11.356;2022-07-03T02:22:12;95955.00;;;14.80
54746;BMP180;40640;48.130;11.356;2022-07-03T02:26:16;95950.00;;;14.70
54746;BMP180;40640;48.130;11.356;2022-07-03T02:30:22;95960.00;;;14.70
54746;BMP180;40640;48.130;11.356;2022-07-03T02:34:27;95953.00;;;14.80
54746;BMP180;40640;48.130;11.356;2022-07-03T02:38:31;95950.00;;;14.80
54746;BMP180;40640;48.130;11.356;2022-07-03T02:42:38;95956.00;;;14.90
54746;BMP180;40640;48.130;11.356;2022-07-03T02:46:47;95952.00;;;14.90
54746;BMP180;40640;48.130;11.356;2022-07-03T02:50:54;95961.00;;;14.80
54746;BMP180;40640;48.130;11.356;2022-07-03T02:55:11;95959.00;;;14.70
54746;BMP180;40640;48.130;11.356;2022-07-03T02:59:22;95958.00;;;14.70
54746;BMP180;40640;48.130;11.356;2022-07-03T03:03:32;95957.00;;;14.70
54746;BMP180;40640;48.130;11.356;2022-07-03T03:07:45;95960.00;;;14.50
54746;BMP180;40640;48.130;11.356;2022-07-03T03:11:55;95972.00;;;14.50
54746;BMP180;40640;48.130;11.356;2022-07-03T03:16:05;95981.00;;;14.50
54746;BMP180;40640;48.130;11.356;2022-07-03T03:20:14;95979.00;;;14.50
54746;BMP180;40640;48.130;11.356;2022-07-03T03:24:18;95976.00;;;14.50
54746;BMP180;40640;48.130;11.356;2022-07-03T03:28:21;95982.00;;;14.50
54746;BMP180;40640;48.130;11.356;2022-07-03T03:32:26;95984.00;;;14.50
54746;BMP180;40640;48.130;11.356;2022-07-03T03:36:30;95982.00;;;14.50
54746;BMP180;40640;48.130;11.356;2022-07-03T03:40:34;95991.00;;;14.50
54746;BMP180;40640;48.130;11.356;2022-07-03T03:44:38;95994.00;;;14.60
54746;BMP180;40640;48.130;11.356;2022-07-03T03:48:41;95990.00;;;14.70
54746;BMP180;40640;48.130;11.356;2022-07-03T03:52:44;95988.00;;;14.70
54746;BMP180;40640;48.130;11.356;2022-07-03T03:56:48;95989.00;;;14.70
54746;BMP180;40640;48.130;11.356;2022-07-03T04:00:51;95982.00;;;14.70
54746;BMP180;40640;48.130;11.356;2022-07-03T04:04:54;95984.00;;;14.70
54746;BMP180;40640;48.130;11.356;2022-07-03T04:08:57;96002.00;;;14.80
54746;BMP180;40640;48.130;11.356;2022-07-03T04:13:02;95996.00;;;15.00
54746;BMP180;40640;48.130;11.356;2022-07-03T04:17:04;95999.00;;;15.20
54746;BMP180;40640;48.130;11.356;2022-07-03T04:21:07;96005.00;;;15.20
54746;BMP180;40640;48.130;11.356;2022-07-03T04:25:10;96000.00;;;15.40
54746;BMP180;40640;48.130;11.356;2022-07-03T04:29:14;95995.00;;;15.70
54746;BMP180;40640;48.130;11.356;2022-07-03T04:33:17;96000.00;;;15.70
54746;BMP180;40640;48.130;11.356;2022-07-03T04:37:20;96001.00;;;15.80
54746;BMP180;40640;48.130;11.356;2022-07-03T04:41:23;95996.00;;;15.90
54746;BMP180;40640;48.130;11.356;2022-07-03T04:45:27;95993.00;;;16.00
54746;BMP180;40640;48.130;11.356;2022-07-03T04:49:30;96000.00;;;16.20
54746;BMP180;40640;48.130;11.356;2022-07-03T04:53:33;96006.00;;;16.40
54746;BMP180;40640;48.130;11.356;2022-07-03T04:57:36;96007.00;;;16.60
54746;BMP180;40640;48.130;11.356;2022-07-03T05:01:40;96011.00;;;16.90
54746;BMP180;40640;48.130;11.356;2022-07-03T05:05:43;96011.00;;;17.00
54746;BMP180;40640;48.130;11.356;2022-07-03T05:09:45;96009.00;;;17.20
54746;BMP180;40640;48.130;11.356;2022-07-03T05:13:48;96012.00;;;17.40
54746;BMP180;40640;48.130;11.356;2022-07-03T05:17:52;96018.00;;;17.90
54746;BMP180;40640;48.130;11.356;2022-07-03T05:21:55;96023.00;;;18.10
54746;BMP180;40640;48.130;11.356;2022-07-03T05:25:58;96030.00;;;18.50
54746;BMP180;40640;48.130;11.356;2022-07-03T05:30:01;96024.00;;;19.10
54746;BMP180;40640;48.130;11.356;2022-07-03T05:34:05;96025.00;;;19.30
54746;BMP180;40640;48.130;11.356;2022-07-03T05:38:08;96016.00;;;20.30
54746;BMP180;40640;48.130;11.356;2022-07-03T05:42:10;96009.00;;;22.30
54746;BMP180;40640;48.130;11.356;2022-07-03T05:46:13;96006.00;;;24.70
54746;BMP180;40640;48.130;11.356;2022-07-03T05:50:17;96008.00;;;26.20
54746;BMP180;40640;48.130;11.356;2022-07-03T05:54:20;96006.00;;;31.30
54746;BMP180;40640;48.130;11.356;2022-07-03T05:58:23;96000.00;;;32.40
54746;BMP180;40640;48.130;11.356;2022-07-03T06:02:26;95997.00;;;32.50
54746;BMP180;40640;48.130;11.356;2022-07-03T06:06:30;95993.00;;;33.60
54746;BMP180;40640;48.130;11.356;2022-07-03T06:10:33;96000.00;;;34.40
54746;BMP180;40640;48.130;11.356;2022-07-03T06:14:36;95993.00;;;32.80
54746;BMP180;40640;48.130;11.356;2022-07-03T06:18:39;96006.00;;;34.80
54746;BMP180;40640;48.130;11.356;2022-07-03T06:22:43;96005.00;;;34.90
54746;BMP180;40640;48.130;11.356;2022-07-03T06:26:46;96013.00;;;34.90
54746;BMP180;40640;48.130;11.356;2022-07-03T06:30:48;96014.00;;;31.20
54746;BMP180;40640;48.130;11.356;2022-07-03T06:34:51;96028.00;;;28.80
54746;BMP180;40640;48.130;11.356;2022-07-03T06:38:56;96025.00;;;27.90
54746;BMP180;40640;48.130;11.356;2022-07-03T06:42:58;96030.00;;;27.00
54746;BMP180;40640;48.130;11.356;2022-07-03T06:47:01;96044.00;;;25.50
54746;BMP180;40640;48.130;11.356;2022-07-03T06:51:04;96044.00;;;24.90
54746;BMP180;40640;48.130;11.356;2022-07-03T06:55:09;96048.00;;;24.50
54746;BMP180;40640;48.130;11.356;2022-07-03T06:59:12;96048.00;;;24.40
54746;BMP180;40640;48.130;11.356;2022-07-03T07:03:14;96053.00;;;24.40
54746;BMP180;40640;48.130;11.356;2022-07-03T07:07:17;96054.00;;;24.70
54746;BMP180;40640;48.130;11.356;2022-07-03T07:11:21;96060.00;;;24.30
54746;BMP180;40640;48.130;11.356;2022-07-03T07:15:24;96059.00;;;24.60
54746;BMP180;40640;48.130;11.356;2022-07-03T07:19:27;96066.00;;;24.60
54746;BMP180;40640;48.130;11.356;2022-07-03T07:23:30;96066.00;;;24.70
54746;BMP180;40640;48.130;11.356;2022-07-03T07:27:34;96068.00;;;24.70
54746;BMP180;40640;48.130;11.356;2022-07-03T07:31:37;96060.00;;;24.90
54746;BMP180;40640;48.130;11.356;2022-07-03T07:35:40;96068.00;;;24.60
54746;BMP180;40640;48.130;11.356;2022-07-03T07:39:42;96069.00;;;24.40
54746;BMP180;40640;48.130;11.356;2022-07-03T07:43:47;96067.00;;;24.60
54746;BMP180;40640;48.130;11.356;2022-07-03T07:47:50;96056.00;;;24.50
54746;BMP180;40640;48.130;11.356;2022-07-03T07:51:52;96058.00;;;25.00
54746;BMP180;40640;48.130;11.356;2022-07-03T07:55:55;96060.00;;;25.20
54746;BMP180;40640;48.130;11.356;2022-07-03T08:00:04;96052.00;;;25.60
54746;BMP180;40640;48.130;11.356;2022-07-03T08:04:12;96055.00;;;25.60
54746;BMP180;40640;48.130;11.356;2022-07-03T08:08:33;96062.00;;;25.90
54746;BMP180;40640;48.130;11.356;2022-07-03T08:12:35;96065.00;;;26.30
54746;BMP180;40640;48.130;11.356;2022-07-03T08:16:39;96056.00;;;25.90
54746;BMP180;40640;48.130;11.356;2022-07-03T08:20:44;96054.00;;;26.20
54746;BMP180;40640;48.130;11.356;2022-07-03T08:24:47;96042.00;;;26.90
54746;BMP180;40640;48.130;11.356;2022-07-03T08:28:49;96047.00;;;27.30
54746;BMP180;40640;48.130;11.356;2022-07-03T08:32:56;96040.00;;;27.80
54746;BMP180;40640;48.130;11.356;2022-07-03T08:36:59;96046.00;;;27.70
54746;BMP180;40640;48.130;11.356;2022-07-03T08:41:03;96023.00;;;28.20
54746;BMP180;40640;48.130;11.356;2022-07-03T08:45:07;96035.00;;;28.30
54746;BMP180;40640;48.130;11.356;2022-07-03T08:49:12;96031.00;;;28.30
54746;BMP180;40640;48.130;11.356;2022-07-03T08:53:17;96025.00;;;29.00
54746;BMP180;40640;48.130;11.356;2022-07-03T08:57:20;96026.00;;;29.00
54746;BMP180;40640;48.130;11.356;2022-07-03T09:01:24;96019.00;;;29.30
54746;BMP180;40640;48.130;11.356;2022-07-03T09:05:29;96022.00;;;29.70
54746;BMP180;40640;48.130;11.356;2022-07-03T09:09:32;96024.00;;;29.70
54746;BMP180;40640;48.130;11.356;2022-07-03T09:13:36;96019.00;;;29.90
54746;BMP180;40640;48.130;11.356;2022-07-03T09:17:38;96022.00;;;29.90
54746;BMP180;40640;48.130;11.356;2022-07-03T09:21:43;96025.00;;;30.10
54746;BMP180;40640;48.130;11.356;2022-07-03T09:25:53;96022.00;;;30.10
54746;BMP180;40640;48.130;11.356;2022-07-03T09:29:57;96028.00;;;30.40
54746;BMP180;40640;48.130;11.356;2022-07-03T09:34:02;96031.00;;;30.40
54746;BMP180;40640;48.130;11.356;2022-07-03T09:38:06;96038.00;;;30.20
54746;BMP180;40640;48.130;11.356;2022-07-03T09:42:09;96029.00;;;29.90
54746;BMP180;40640;48.130;11.356;2022-07-03T09:46:12;96026.00;;;29.70
54746;BMP180;40640;48.130;11.356;2022-07-03T09:50:15;96027.00;;;30.50
54746;BMP180;40640;48.130;11.356;2022-07-03T09:54:19;96029.00;;;30.50
54746;BMP180;40640;48.130;11.356;2022-07-03T09:58:24;96022.00;;;30.20
54746;BMP180;40640;48.130;11.356;2022-07-03T10:02:27;96022.00;;;29.90
54746;BMP180;40640;48.130;11.356;2022-07-03T10:06:45;96026.00;;;30.80
54746;BMP180;40640;48.130;11.356;2022-07-03T10:10:49;96023.00;;;30.60
54746;BMP180;40640;48.130;11.356;2022-07-03T10:14:52;96024.00;;;30.00
54746;BMP180;40640;48.130;11.356;2022-07-03T10:18:55;96022.00;;;30.50
54746;BMP180;40640;48.130;11.356;2022-07-03T10:22:58;96020.00;;;29.60
54746;BMP180;40640;48.130;11.356;2022-07-03T10:27:03;96028.00;;;30.00
54746;BMP180;40640;48.130;11.356;2022-07-03T10:31:06;96024.00;;;29.70
54746;BMP180;40640;48.130;11.356;2022-07-03T10:35:12;96014.00;;;30.60
54746;BMP180;40640;48.130;11.356;2022-07-03T10:39:31;96022.00;;;30.70
54746;BMP180;40640;48.130;11.356;2022-07-03T10:43:39;96015.00;;;30.30
54746;BMP180;40640;48.130;11.356;2022-07-03T10:47:59;96022.00;;;30.40
54746;BMP180;40640;48.130;11.356;2022-07-03T10:52:04;96019.00;;;30.90
54746;BMP180;40640;48.130;11.356;2022-07-03T10:56:08;96019.00;;;31.00
54746;BMP180;40640;48.130;11.356;2022-07-03T11:00:17;96019.00;;;30.80
54746;BMP180;40640;48.130;11.356;2022-07-03T11:04:20;96009.00;;;30.50
54746;BMP180;40640;48.130;11.356;2022-07-03T11:08:23;96014.00;;;30.50
54746;BMP180;40640;48.130;11.356;2022-07-03T11:12:53;96001.00;;;30.90
54746;BMP180;40640;48.130;11.356;2022-07-03T11:17:19;95995.00;;;30.90
54746;BMP180;40640;48.130;11.356;2022-07-03T11:21:31;95990.00;;;30.00
54746;BMP180;40640;48.130;11.356;2022-07-03T11:25:39;95981.00;;;30.80
54746;BMP180;40640;48.130;11.356;2022-07-03T11:29:48;95986.00;;;31.00
54746;BMP180;40640;48.130;11.356;2022-07-03T11:33:58;95982.00;;;31.40
54746;BMP180;40640;48.130;11.356;2022-07-03T11:38:02;95981.00;;;31.90
54746;BMP180;40640;48.130;11.356;2022-07-03T11:42:04;95980.00;;;32.00
54746;BMP180;40640;48.130;11.356;2022-07-03T11:46:07;95975.00;;;32.40
54746;BMP180;40640;48.130;11.356;2022-07-03T11:50:12;95966.00;;;32.40
54746;BMP180;40640;48.130;11.356;2022-07-03T11:54:15;95961.00;;;32.50
54746;BMP180;40640;48.130;11.356;2022-07-03T11:58:18;95962.00;;;33.20
54746;BMP180;40640;48.130;11.356;2022-07-03T12:02:20;95960.00;;;33.10
54746;BMP180;40640;48.130;11.356;2022-07-03T12:06:25;95952.00;;;33.40
54746;BMP180;40640;48.130;11.356;2022-07-03T12:10:37;95965.00;;;34.00
54746;BMP180;40640;48.130;11.356;2022-07-03T12:14:42;95950.00;;;33.00
54746;BMP180;40640;48.130;11.356;2022-07-03T12:18:49;95950.00;;;34.50
54746;BMP180;40640;48.130;11.356;2022-07-03T12:22:54;95960.00;;;34.70
54746;BMP180;40640;48.130;11.356;2022-07-03T12:26:56;95948.00;;;35.40
54746;BMP180;40640;48.130;11.356;2022-07-03T12:30:59;95948.00;;;37.10
54746;BMP180;40640;48.130;11.356;2022-07-03T12:35:02;95935.00;;;38.90
54746;BMP180;40640;48.130;11.356;2022-07-03T12:39:07;95935.00;;;40.00
54746;BMP180;40640;48.130;11.356;2022-07-03T12:43:09;95930.00;;;40.20
54746;BMP180;40640;48.130;11.356;2022-07-03T12:47:16;95924.00;;;41.30
54746;BMP180;40640;48.130;11.356;2022-07-03T12:51:38;95926.00;;;42.30
54746;BMP180;40640;48.130;11.356;2022-07-03T12:55:45;95925.00;;;41.80
54746;BMP180;40640;48.130;11.356;2022-07-03T13:00:01;95922.00;;;41.00
54746;BMP180;40640;48.130;11.356;2022-07-03T13:04:04;95914.00;;;44.10
54746;BMP180;40640;48.130;11.356;2022-07-03T13:08:07;95891.00;;;46.10
54746;BMP180;40640;48.130;11.356;2022-07-03T13:12:21;95902.00;;;43.70
54746;BMP180;40640;48.130;11.356;2022-07-03T13:16:25;95892.00;;;44.00
54746;BMP180;40640;48.130;11.356;2022-07-03T13:20:29;95906.00;;;42.20
54746;BMP180;40640;48.130;11.356;2022-07-03T13:24:32;95912.00;;;40.10
54746;BMP180;40640;48.130;11.356;2022-07-03T13:28:36;95914.00;;;40.20
54746;BMP180;40640;48.130;11.356;2022-07-03T13:32:39;95914.00;;;40.20
54746;BMP180;40640;48.130;11.356;2022-07-03T13:36:42;95917.00;;;38.30
54746;BMP180;40640;48.130;11.356;2022-07-03T13:40:45;95926.00;;;37.80
54746;BMP180;40640;48.130;11.356;2022-07-03T13:44:49;95917.00;;;36.50
54746;BMP180;40640;48.130;11.356;2022-07-03T13:48:52;95921.00;;;34.90
54746;BMP180;40640;48.130;11.356;2022-07-03T13:52:55;95927.00;;;34.00
54746;BMP180;40640;48.130;11.356;2022-07-03T13:56:58;95926.00;;;33.80
54746;BMP180;40640;48.130;11.356;2022-07-03T14:01:02;95931.00;;;33.20
54746;BMP180;40640;48.130;11.356;2022-07-03T14:05:06;95924.00;;;33.50
54746;BMP180;40640;48.130;11.356;2022-07-03T14:09:09;95923.00;;;33.40
54746;BMP180;40640;48.130;11.356;2022-07-03T14:13:12;95916.00;;;32.40
54746;BMP180;40640;48.130;11.356;2022-07-03T14:17:16;95923.00;;;33.00
54746;BMP180;40640;48.130;11.356;2022-07-03T14:21:18;95912.00;;;33.30
54746;BMP180;40640;48.130;11.356;2022-07-03T14:25:21;95910.00;;;32.80
54746;BMP180;40640;48.130;11.356;2022-07-03T14:29:24;95910.00;;;32.60
54746;BMP180;40640;48.130;11.356;2022-07-03T14:33:46;95911.00;;;32.70
54746;BMP180;40640;48.130;11.356;2022-07-03T14:37:49;95913.00;;;32.10
54746;BMP180;40640;48.130;11.356;2022-07-03T14:41:52;95917.00;;;32.20
54746;BMP180;40640;48.130;11.356;2022-07-03T14:45:55;95914.00;;;31.60
54746;BMP180;40640;48.130;11.356;2022-07-03T14:49:59;95911.00;;;31.80
54746;BMP180;40640;48.130;11.356;2022-07-03T14:54:02;95910.00;;;31.70
54746;BMP180;40640;48.130;11.356;2022-07-03T14:58:12;95906.00;;;31.50
54746;BMP180;40640;48.130;11.356;2022-07-03T15:02:19;95907.00;;;31.80
54746;BMP180;40640;48.130;11.356;2022-07-03T15:06:23;95909.00;;;31.50
54746;BMP180;40640;48.130;11.356;2022-07-03T15:10:28;95898.00;;;31.60
54746;BMP180;40640;48.130;11.356;2022-07-03T15:14:34;95896.00;;;31.40
54746;BMP180;40640;48.130;11.356;2022-07-03T15:18:43;95897.00;;;31.60
54746;BMP180;40640;48.130;11.356;2022-07-03T15:22:47;95889.00;;;31.60
54746;BMP180;40640;48.130;11.356;2022-07-03T15:26:51;95879.00;;;31.60
54746;BMP180;40640;48.130;11.356;2022-07-03T15:30:54;95884.00;;;31.60
54746;BMP180;40640;48.130;11.356;2022-07-03T15:34:58;95884.00;;;31.60
54746;BMP180;40640;48.130;11.356;2022-07-03T15:39:05;95883.00;;;31.40
54746;BMP180;40640;48.130;11.356;2022-07-03T15:43:30;95877.00;;;31.30
54746;BMP180;40640;48.130;11.356;2022-07-03T15:47:46;95871.00;;;31.20
54746;BMP180;40640;48.130;11.356;2022-07-03T15:52:06;95868.00;;;31.20
54746;BMP180;40640;48.130;11.356;2022-07-03T15:56:11;95869.00;;;31.00
54746;BMP180;40640;48.130;11.356;2022-07-03T16:00:17;95860.00;;;30.90
54746;BMP180;40640;48.130;11.356;2022-07-03T16:04:35;95862.00;;;30.90
54746;BMP180;40640;48.130;11.356;2022-07-03T16:08:40;95851.00;;;30.80
54746;BMP180;40640;48.130;11.356;2022-07-03T16:12:47;95855.00;;;30.70
54746;BMP180;40640;48.130;11.356;2022-07-03T16:16:51;95859.00;;;30.70
54746;BMP180;40640;48.130;11.356;2022-07-03T16:20:54;95850.00;;;30.20
54746;BMP180;40640;48.130;11.356;2022-07-03T16:24:57;95849.00;;;30.20
54746;BMP180;40640;48.130;11.356;2022-07-03T16:29:01;95844.00;;;30.20
54746;BMP180;40640;48.130;11.356;2022-07-03T16:33:09;95841.00;;;30.30
54746;BMP180;40640;48.130;11.356;2022-07-03T16:37:13;95840.00;;;30.20
54746;BMP180;40640;48.130;11.356;2022-07-03T16:41:20;95844.00;;;30.00
54746;BMP180;40640;48.130;11.356;2022-07-03T16:45:30;95846.00;;;30.00
54746;BMP180;40640;48.130;11.356;2022-07-03T16:49:34;95846.00;;;29.90
54746;BMP180;40640;48.130;11.356;2022-07-03T16:53:39;95846.00;;;29.90
54746;BMP180;40640;48.130;11.356;2022-07-03T16:57:43;95850.00;;;29.80
54746;BMP180;40640;48.130;11.356;2022-07-03T17:01:48;95844.00;;;29.70
54746;BMP180;40640;48.130;11.356;2022-07-03T17:05:54;95842.00;;;29.60
54746;BMP180;40640;48.130;11.356;2022-07-03T17:09:57;95853.00;;;29.50
54746;BMP180;40640;48.130;11.356;2022-07-03T17:14:00;95840.00;;;29.60
54746;BMP180;40640;48.130;11.356;2022-07-03T17:18:06;95846.00;;;29.50
54746;BMP180;40640;48.130;11.356;2022-07-03T17:22:11;95845.00;;;29.40
54746;BMP180;40640;48.130;11.356;2022-07-03T17:26:32;95848.00;;;29.40
54746;BMP180;40640;48.130;11.356;2022-07-03T17:30:37;95843.00;;;29.20
54746;BMP180;40640;48.130;11.356;2022-07-03T17:34:42;95824.00;;;29.20
54746;BMP180;40640;48.130;11.356;2022-07-03T17:38:47;95826.00;;;29.10
54746;BMP180;40640;48.130;11.356;2022-07-03T17:42:51;95824.00;;;29.00
54746;BMP180;40640;48.130;11.356;2022-07-03T17:46:54;95820.00;;;28.90
54746;BMP180;40640;48.130;11.356;2022-07-03T17:51:05;95820.00;;;28.80
54746;BMP180;40640;48.130;11.356;2022-07-03T17:55:10;95817.00;;;28.70
54746;BMP180;40640;48.130;11.356;2022-07-03T17:59:14;95815.00;;;28.60
54746;BMP180;40640;48.130;11.356;2022-07-03T18:03:17;95820.00;;;28.40
54746;BMP180;40640;48.130;11.356;2022-07-03T18:07:27;95815.00;;;28.40
54746;BMP180;40640;48.130;11.356;2022-07-03T18:11:35;95814.00;;;28.20
54746;BMP180;40640;48.130;11.356;2022-07-03T18:15:41;95802.00;;;28.00
54746;BMP180;40640;48.130;11.356;2022-07-03T18:19:47;95804.00;;;27.90
54746;BMP180;40640;48.130;11.356;2022-07-03T18:23:53;95812.00;;;27.80
54746;BMP180;40640;48.130;11.356;2022-07-03T18:27:57;95808.00;;;27.70
54746;BMP180;40640;48.130;11.356;2022-07-03T18:32:01;95813.00;;;27.60
54746;BMP180;40640;48.130;11.356;2022-07-03T18:36:05;95806.00;;;27.40
54746;BMP180;40640;48.130;11.356;2022-07-03T18:40:10;95811.00;;;27.30
54746;BMP180;40640;48.130;11.356;2022-07-03T18:44:13;95804.00;;;27.20
54746;BMP180;40640;48.130;11.356;2022-07-03T18:48:16;95801.00;;;27.00
54746;BMP180;40640;48.130;11.356;2022-07-03T18:52:23;95808.00;;;26.90
54746;BMP180;40640;48.130;11.356;2022-07-03T18:56:40;95810.00;;;26.70
54746;BMP180;40640;48.130;11.356;2022-07-03T19:00:45;95810.00;;;26.50
54746;BMP180;40640;48.130;11.356;2022-07-03T19:04:50;95811.00;;;26.40
54746;BMP180;40640;48.130;11.356;2022-07-03T19:09:00;95803.00;;;26.20
54746;BMP180;40640;48.130;11.356;2022-07-03T19:13:07;95817.00;;;26.00
54746;BMP180;40640;48.130;11.356;2022-07-03T19:17:12;95815.00;;;25.80
54746;BMP180;40640;48.130;11.356;2022-07-03T19:21:15;95820.00;;;25.50
54746;BMP180;40640;48.130;11.356;2022-07-03T19:25:18;95813.00;;;25.40
54746;BMP180;40640;48.130;11.356;2022-07-03T19:29:22;95833.00;;;25.40
54746;BMP180;40640;48.130;11.356;2022-07-03T19:33:25;95820.00;;;25.40
54746;BMP180;40640;48.130;11.356;2022-07-03T19:37:28;95826.00;;;25.30
54746;BMP180;40640;48.130;11.356;2022-07-03T19:41:31;95828.00;;;25.00
54746;BMP180;40640;48.130;11.356;2022-07-03T19:45:35;95835.00;;;24.80
54746;BMP180;40640;48.130;11.356;2022-07-03T19:49:38;95828.00;;;24.60
54746;BMP180;40640;48.130;11.356;2022-07-03T19:53:41;95822.00;;;24.40
54746;BMP180;40640;48.130;11.356;2022-07-03T19:57:44;95832.00;;;24.40
54746;BMP180;40640;48.130;11.356;2022-07-03T20:01:48;95833.00;;;24.30
54746;BMP180;40640;48.130;11.356;2022-07-03T20:05:52;95816.00;;;24.20
54746;BMP180;40640;48.130;11.356;2022-07-03T20:09:55;95822.00;;;24.10
54746;BMP180;40640;48.130;11.356;2022-07-03T20:13:58;95818.00;;;24.10
54746;BMP180;40640;48.130;11.356;2022-07-03T20:18:03;95809.00;;;24.10
54746;BMP180;40640;48.130;11.356;2022-07-03T20:22:16;95810.00;;;24.00
54746;BMP180;40640;48.130;11.356;2022-07-03T20:26:19;95818.00;;;23.80
54746;BMP180;40640;48.130;11.356;2022-07-03T20:30:22;95820.00;;;23.50
54746;BMP180;40640;48.130;11.356;2022-07-03T20:34:26;95837.00;;;23.40
54746;BMP180;40640;48.130;11.356;2022-07-03T20:38:29;95833.00;;;23.40
54746;BMP180;40640;48.130;11.356;2022-07-03T20:42:52;95836.00;;;23.40
54746;BMP180;40640;48.130;11.356;2022-07-03T20:46:57;95841.00;;;23.20
54746;BMP180;40640;48.130;11.356;2022-07-03T20:51:01;95836.00;;;23.20
54746;BMP180;40640;48.130;11.356;2022-07-03T20:55:06;95835.00;;;23.10
54746;BMP180;40640;48.130;11.356;2022-07-03T20:59:09;95849.00;;;22.90
54746;BMP180;40640;48.130;11.356;2022-07-03T21:03:12;95845.00;;;22.80
54746;BMP180;40640;48.130;11.356;2022-07-03T21:07:16;95853.00;;;22.50
54746;BMP180;40640;48.130;11.356;2022-07-03T21:11:21;95853.00;;;22.50
54746;BMP180;40640;48.130;11.356;2022-07-03T21:15:38;95859.00;;;22.30
54746;BMP180;40640;48.130;11.356;2022-07-03T21:19:41;95858.00;;;22.30
54746;BMP180;40640;48.130;11.356;2022-07-03T21:23:47;95847.00;;;22.10
54746;BMP180;40640;48.130;11.356;2022-07-03T21:27:49;95840.00;;;21.90
54746;BMP180;40640;48.130;11.356;2022-07-03T21:31:52;95847.00;;;21.70
54746;BMP180;40640;48.130;11.356;2022-07-03T21:35:56;95839.00;;;21.80
54746;BMP180;40640;48.130;11.356;2022-07-03T21:40:00;95831.00;;;21.70
54746;BMP180;40640;48.130;11.356;2022-07-03T21:44:04;95830.00;;;21.60
54746;BMP180;40640;48.130;11.356;2022-07-03T21:48:07;95841.00;;;21.60
54746;BMP180;40640;48.130;11.356;2022-07-03T21:52:10;95847.00;;;21.70
54746;BMP180;40640;48.130;11.356;2022-07-03T21:56:14;95854.00;;;22.00
54746;BMP180;40640;48.130;11.356;2022-07-03T22:00:17;95858.00;;;22.10
54746;BMP180;40640;48.130;11.356;2022-07-03T22:04:20;95849.00;;;22.10
54746;BMP180;40640;48.130;11.356;2022-07-03T22:08:23;95849.00;;;22.10
54746;BMP180;40640;48.130;11.356;2022-07-03T22:12:27;95852.00;;;22.00
54746;BMP180;40640;48.130;11.356;2022-07-03T22:16:36;95847.00;;;22.10
54746;BMP180;40640;48.130;11.356;2022-07-03T22:20:38;95841.00;;;22.10
54746;BMP180;40640;48.130;11.356;2022-07-03T22:24:41;95830.00;;;22.10
54746;BMP180;40640;48.130;11.356;2022-07-03T22:28:46;95820.00;;;22.00
54746;BMP180;40640;48.130;11.356;2022-07-03T22:32:48;95820.00;;;21.70
54746;BMP180;40640;48.130;11.356;2022-07-03T22:36:52;95824.00;;;21.70
54746;BMP180;40640;48.130;11.356;2022-07-03T22:40:55;95824.00;;;21.90
54746;BMP180;40640;48.130;11.356;2022-07-03T22:44:59;95826.00;;;21.70
54746;BMP180;40640;48.130;11.356;2022-07-03T22:49:02;95827.00;;;21.40
54746;BMP180;40640;48.130;11.356;2022-07-03T22:53:05;95824.00;;;20.80
54746;BMP180;40640;48.130;11.356;2022-07-03T22:57:08;95827.00;;;20.40
54746;BMP180;40640;48.130;11.356;2022-07-03T23:01:14;95818.00;;;20.30
54746;BMP180;40640;48.130;11.356;2022-07-03T23:05:17;95818.00;;;20.50
54746;BMP180;40640;48.130;11.356;2022-07-03T23:09:19;95815.00;;;20.40
54746;BMP180;40640;48.130;11.356;2022-07-03T23:13:22;95828.00;;;20.50